createdAt,value
2024-01-18T00:02:25.162Z,99287.81
2024-01-18T00:04:52.649Z,99292.16
2024-01-18T00:07:20.350Z,99288.66
2024-01-18T00:09:49.190Z,99289.47
2024-01-18T00:12:16.782Z,99295.97
2024-01-18T00:14:44.381Z,99299.50
2024-01-18T00:17:12.118Z,99300.31
2024-01-18T00:19:39.757Z,99299.50
2024-01-18T00:22:07.500Z,99300.56
2024-01-18T00:24:35.194Z,99298.97
2024-01-18T00:27:02.826Z,99297.34
2024-01-18T00:29:32.409Z,99323.66
2024-01-18T00:32:00.224Z,99319.59
2024-01-18T00:34:27.843Z,99319.38
2024-01-18T00:36:55.419Z,99323.19
2024-01-18T00:39:23.783Z,99331.31
2024-01-18T00:41:51.779Z,99345.13
2024-01-18T00:44:19.410Z,99343.53
2024-01-18T00:46:47.177Z,99335.41
2024-01-18T00:49:14.760Z,99324.03
2024-01-18T00:51:42.537Z,99344.91
2024-01-18T00:54:10.133Z,99347.91
2024-01-18T00:56:37.685Z,99344.66
2024-01-18T00:59:06.324Z,99349.00
2024-01-18T01:01:33.910Z,99362.53
2024-01-18T01:04:01.835Z,99364.19
2024-01-18T01:06:29.494Z,99363.69
2024-01-18T01:08:57.028Z,99365.88
2024-01-18T01:11:24.617Z,99363.16
2024-01-18T01:13:52.249Z,99373.19
2024-01-18T01:16:22.037Z,99363.44
2024-01-18T01:18:49.829Z,99363.44
2024-01-18T01:21:17.440Z,99368.84
2024-01-18T01:23:49.891Z,99367.50
2024-01-18T01:26:17.653Z,99374.53
2024-01-18T01:28:45.454Z,99377.75
2024-01-18T01:31:13.001Z,99376.69
2024-01-18T01:33:43.230Z,99380.47
2024-01-18T01:36:10.951Z,99375.31
2024-01-18T01:38:38.598Z,99382.66
2024-01-18T01:41:06.959Z,99376.13
2024-01-18T01:43:34.793Z,99378.03
2024-01-18T01:46:02.411Z,99381.84
2024-01-18T01:48:30.940Z,99391.06
2024-01-18T01:50:58.927Z,99390.28
2024-01-18T01:53:27.284Z,99389.47
2024-01-18T01:55:55.514Z,99391.91
2024-01-18T01:58:23.752Z,99401.16
2024-01-18T02:00:52.477Z,99402.75
2024-01-18T02:03:20.396Z,99400.56
2024-01-18T02:05:48.109Z,99406.78
2024-01-18T02:08:15.796Z,99411.41
2024-01-18T02:10:44.489Z,99404.66
2024-01-18T02:13:13.224Z,99411.44
2024-01-18T02:15:41.473Z,99416.34
2024-01-18T02:18:09.412Z,99412.81
2024-01-18T02:20:37.227Z,99414.97
2024-01-18T02:23:07.159Z,99403.31
2024-01-18T02:25:34.884Z,99402.25
2024-01-18T02:28:02.422Z,99410.38
2024-01-18T02:30:30.159Z,99406.56
2024-01-18T02:32:57.826Z,99405.75
2024-01-18T02:35:25.788Z,99411.97
2024-01-18T02:37:53.643Z,99411.44
2024-01-18T02:40:21.385Z,99409.81
2024-01-18T02:42:49.009Z,99413.63
2024-01-18T02:45:17.428Z,99402.78
2024-01-18T02:47:45.151Z,99413.63
2024-01-18T02:50:12.826Z,99413.91
2024-01-18T02:52:40.527Z,99421.25
2024-01-18T02:55:09.080Z,99415.28
2024-01-18T02:57:36.756Z,99415.28
2024-01-18T03:00:05.660Z,99423.41
2024-01-18T03:02:33.209Z,99421.25
2024-01-18T03:05:00.712Z,99422.31
2024-01-18T03:07:30.296Z,99420.69
2024-01-18T03:09:58.053Z,99429.91
2024-01-18T03:12:25.706Z,99434.81
2024-01-18T03:14:54.907Z,99420.47
2024-01-18T03:17:22.544Z,99419.63
2024-01-18T03:19:50.207Z,99431.56
2024-01-18T03:22:17.995Z,99431.31
2024-01-18T03:24:45.625Z,99439.16
2024-01-18T03:27:13.366Z,99438.88
2024-01-18T03:29:41.961Z,99433.75
2024-01-18T03:32:09.751Z,99441.88
2024-01-18T03:34:37.398Z,99441.88
2024-01-18T03:37:05.163Z,99435.88
2024-01-18T03:39:37.497Z,99438.34
2024-01-18T03:42:05.732Z,99450.78
2024-01-18T03:44:36.708Z,99449.16
2024-01-18T03:47:04.581Z,99460.00
2024-01-18T03:49:32.411Z,99449.72
2024-01-18T03:52:00.044Z,99452.19
2024-01-18T03:54:27.885Z,99461.41
2024-01-18T03:56:57.026Z,99464.09
2024-01-18T03:59:25.289Z,99456.00
2024-01-18T04:01:53.404Z,99451.44
2024-01-18T04:04:21.349Z,99458.22
2024-01-18T04:06:50.019Z,99462.56
2024-01-18T04:09:17.581Z,99464.75
2024-01-18T04:11:46.126Z,99463.69
2024-01-18T04:14:13.682Z,99464.78
2024-01-18T04:16:42.544Z,99462.06
2024-01-18T04:19:10.407Z,99476.69
2024-01-18T04:21:38.842Z,99469.13
2024-01-18T04:24:06.915Z,99471.00
2024-01-18T04:26:35.447Z,99478.31
2024-01-18T04:29:03.534Z,99479.41
2024-01-18T04:31:31.010Z,99481.59
2024-01-18T04:33:58.707Z,99484.31
2024-01-18T04:36:27.561Z,99481.88
2024-01-18T04:38:55.158Z,99484.59
2024-01-18T04:41:22.756Z,99485.69
2024-01-18T04:43:50.289Z,99487.88
2024-01-18T04:46:17.911Z,99504.94
2024-01-18T04:48:46.073Z,99515.78
2024-01-18T04:51:13.883Z,99518.50
2024-01-18T04:53:41.512Z,99512.84
2024-01-18T04:56:09.870Z,99511.78
2024-01-18T04:58:38.927Z,99513.94
2024-01-18T05:01:07.599Z,99513.97
2024-01-18T05:03:35.306Z,99513.13
2024-01-18T05:06:03.188Z,99516.38
2024-01-18T05:08:30.998Z,99513.41
2024-01-18T05:10:58.598Z,99513.16
2024-01-18T05:13:26.189Z,99530.19
2024-01-18T05:15:53.779Z,99529.91
2024-01-18T05:18:21.672Z,99535.03
2024-01-18T05:20:49.279Z,99546.13
2024-01-18T05:23:16.784Z,99538.28
2024-01-18T05:25:44.916Z,99539.09
2024-01-18T05:28:13.116Z,99553.72
2024-01-18T05:30:40.841Z,99545.03
2024-01-18T05:33:08.611Z,99548.03
2024-01-18T05:35:36.198Z,99551.28
2024-01-18T05:38:04.971Z,99559.63
2024-01-18T05:40:32.475Z,99559.91
2024-01-18T05:42:59.987Z,99556.69
2024-01-18T05:45:28.175Z,99551.78
2024-01-18T05:47:55.803Z,99563.16
2024-01-18T05:50:24.304Z,99575.31
2024-01-18T05:52:51.854Z,99574.50
2024-01-18T05:55:19.353Z,99567.47
2024-01-18T05:57:47.333Z,99572.59
2024-01-18T06:00:15.791Z,99580.41
2024-01-18T06:02:43.372Z,99582.84
2024-01-18T06:05:12.951Z,99579.59
2024-01-18T06:07:40.784Z,99592.56
2024-01-18T06:10:09.068Z,99594.97
2024-01-18T06:12:36.724Z,99600.13
2024-01-18T06:15:05.111Z,99599.03
2024-01-18T06:17:32.753Z,99603.09
2024-01-18T06:20:00.836Z,99603.59
2024-01-18T06:22:28.481Z,99609.50
2024-01-18T06:24:56.085Z,99627.09
2024-01-18T06:27:23.835Z,99629.78
2024-01-18T06:29:52.444Z,99627.59
2024-01-18T06:32:20.029Z,99636.78
2024-01-18T06:34:47.631Z,99645.44
2024-01-18T06:37:15.176Z,99649.19
2024-01-18T06:39:43.410Z,99659.44
2024-01-18T06:42:12.363Z,99666.19
2024-01-18T06:44:39.941Z,99658.31
2024-01-18T06:47:09.978Z,99659.94
2024-01-18T06:49:39.286Z,99659.91
2024-01-18T06:52:06.950Z,99663.91
2024-01-18T06:54:34.580Z,99663.09
2024-01-18T06:57:02.594Z,99667.69
2024-01-18T06:59:31.016Z,99666.59
2024-01-18T07:02:17.213Z,99670.63
2024-01-18T07:04:47.340Z,99674.91
2024-01-18T07:07:15.033Z,99674.59
2024-01-18T07:09:42.604Z,99690.25
2024-01-18T07:12:13.149Z,99697.28
2024-01-18T07:14:40.674Z,99697.28
2024-01-18T07:17:08.584Z,99704.56
2024-01-18T07:19:38.725Z,99697.81
2024-01-18T07:22:08.103Z,99704.53
2024-01-18T07:24:35.728Z,99707.78
2024-01-18T07:27:03.713Z,99708.28
2024-01-18T07:29:31.200Z,99707.72
2024-01-18T07:31:58.719Z,99715.50
2024-01-18T07:34:26.412Z,99714.16
2024-01-18T07:36:54.216Z,99724.94
2024-01-18T07:39:21.730Z,99717.91
2024-01-18T07:41:49.350Z,99724.94
2024-01-18T07:44:16.953Z,99724.94
2024-01-18T07:46:44.509Z,99733.28
2024-01-18T07:49:12.228Z,99739.75
2024-01-18T07:51:40.041Z,99734.63
2024-01-18T07:54:07.908Z,99745.69
2024-01-18T07:56:36.580Z,99742.41
2024-01-18T07:59:04.078Z,99758.06
2024-01-18T08:01:34.722Z,99757.47
2024-01-18T08:04:04.412Z,99761.50
2024-01-18T08:06:32.359Z,99773.13
2024-01-18T08:08:59.941Z,99783.91
2024-01-18T08:11:27.637Z,99783.91
2024-01-18T08:13:55.150Z,99786.34
2024-01-18T08:16:22.796Z,99786.34
2024-01-18T08:18:50.700Z,99786.34
2024-01-18T08:21:18.307Z,99791.75
2024-01-18T08:23:46.981Z,99791.50
2024-01-18T08:26:16.154Z,99796.06
2024-01-18T08:28:46.892Z,99806.63
2024-01-18T08:31:15.620Z,99810.69
2024-01-18T08:33:43.181Z,99812.88
2024-01-18T08:36:11.124Z,99815.88
2024-01-18T08:38:39.733Z,99817.00
2024-01-18T08:41:07.314Z,99814.63
2024-01-18T08:43:34.864Z,99828.66
2024-01-18T08:46:07.950Z,99830.03
2024-01-18T08:48:39.452Z,99833.03
2024-01-18T08:51:40.826Z,99829.84
2024-01-18T08:54:09.164Z,99836.34
2024-01-18T08:56:37.801Z,99843.69
2024-01-18T08:59:05.410Z,99848.31
2024-01-18T09:01:34.117Z,99838.63
2024-01-18T09:04:01.996Z,99845.97
2024-01-18T09:06:30.393Z,99853.31
2024-01-18T09:08:58.025Z,99859.28
2024-01-18T09:11:25.564Z,99857.19
2024-01-18T09:13:53.312Z,99856.19
2024-01-18T09:16:20.869Z,99877.56
2024-01-18T09:19:00.648Z,99875.72
2024-01-18T09:21:46.558Z,99882.53
2024-01-18T09:24:15.125Z,99881.75
2024-01-18T09:26:42.661Z,99885.84
2024-01-18T09:29:10.355Z,99900.81
2024-01-18T09:31:42.057Z,99895.69
2024-01-18T09:34:12.137Z,99909.56
2024-01-18T09:36:39.863Z,99910.72
2024-01-18T09:39:17.019Z,99927.81
2024-01-18T09:41:57.393Z,99934.13
2024-01-18T09:44:31.598Z,99930.63
2024-01-18T09:47:04.823Z,99925.00
2024-01-18T09:49:37.066Z,99936.41
2024-01-18T09:52:07.108Z,99937.78
2024-01-18T09:54:36.697Z,99947.03
2024-01-18T09:57:09.950Z,99961.69
2024-01-18T09:59:39.451Z,99959.28
2024-01-18T10:02:07.308Z,99963.13
2024-01-18T10:04:34.888Z,99968.84
2024-01-18T10:07:04.737Z,99978.34
2024-01-18T10:09:33.251Z,99981.09
2024-01-18T10:12:00.836Z,99993.03
2024-01-18T10:14:45.483Z,99991.19
2024-01-18T10:17:22.949Z,99998.50
2024-01-18T10:19:52.327Z,100004.50
2024-01-18T10:22:23.061Z,100010.19
2024-01-18T10:24:51.978Z,100011.56
2024-01-18T10:27:20.525Z,100013.44
2024-01-18T10:29:50.529Z,100015.38
2024-01-18T10:32:18.229Z,100016.47
2024-01-18T10:34:47.479Z,100021.91
2024-01-18T10:37:16.778Z,100025.66
2024-01-18T10:39:47.688Z,100017.00
2024-01-18T10:42:16.303Z,100029.47
2024-01-18T10:44:46.694Z,100028.66
2024-01-18T10:47:16.654Z,100034.06
2024-01-18T10:49:47.365Z,100041.91
2024-01-18T10:52:18.232Z,100037.56
2024-01-18T10:54:54.348Z,100032.34
2024-01-18T10:57:25.618Z,100031.81
2024-01-18T10:59:54.191Z,100044.25
2024-01-18T11:02:22.892Z,100046.94
2024-01-18T11:04:55.612Z,100039.00
2024-01-18T11:07:24.901Z,100043.31
2024-01-18T11:09:54.118Z,100042.75
2024-01-18T11:12:23.988Z,100053.84
2024-01-18T11:14:52.664Z,100056.81
2024-01-18T11:17:22.872Z,100062.75
2024-01-18T11:19:51.353Z,100061.06
2024-01-18T11:22:27.465Z,100066.75
2024-01-18T11:25:08.682Z,100064.78
2024-01-18T11:27:41.079Z,100078.56
2024-01-18T11:30:15.208Z,100080.94
2024-01-18T11:32:46.828Z,100086.91
2024-01-18T11:35:16.533Z,100085.22
2024-01-18T11:37:44.305Z,100088.72
2024-01-18T11:40:13.295Z,100091.94
2024-01-18T11:42:47.251Z,100080.72
2024-01-18T11:45:19.089Z,100085.81
2024-01-18T11:47:48.519Z,100081.94
2024-01-18T11:53:40.385Z,100099.78
2024-01-18T11:56:11.468Z,100098.63
2024-01-18T11:58:40.817Z,100098.88
2024-01-18T12:01:16.005Z,100107.81
2024-01-18T12:04:13.013Z,100104.81
2024-01-18T12:07:13.143Z,100109.09
2024-01-18T12:11:34.670Z,100114.22
2024-01-18T12:14:32.299Z,100127.81
2024-01-18T12:18:09.786Z,100127.75
2024-01-18T12:30:52.605Z,100140.34
2024-01-18T12:37:52.361Z,100160.00
2024-01-18T12:40:23.588Z,100149.34
2024-01-18T12:43:11.780Z,100164.34
2024-01-18T12:46:01.049Z,100156.16
2024-01-18T12:59:05.941Z,100172.75
2024-01-18T13:06:14.072Z,100181.13
2024-01-18T13:08:41.805Z,100190.34
2024-01-18T13:11:09.537Z,100190.88
2024-01-18T13:13:37.293Z,100195.75
2024-01-18T13:16:06.042Z,100198.19
2024-01-18T13:18:36.963Z,100203.09
2024-01-18T13:21:05.097Z,100216.69
2024-01-18T13:23:33.839Z,100213.66
2024-01-18T13:26:01.462Z,100223.16
2024-01-18T13:28:31.500Z,100227.81
2024-01-18T13:30:59.546Z,100225.13
2024-01-18T13:33:28.614Z,100236.66
2024-01-18T13:35:56.587Z,100227.91
2024-01-18T13:38:26.679Z,100228.50
2024-01-18T13:40:55.299Z,100233.41
2024-01-18T13:43:24.118Z,100238.63
2024-01-18T13:45:51.905Z,100249.53
2024-01-18T13:48:19.845Z,100259.63
2024-01-18T13:50:47.324Z,100258.22
2024-01-18T13:53:17.345Z,100258.47
2024-01-18T13:55:47.293Z,100257.38
2024-01-18T13:58:15.188Z,100263.88
2024-01-18T14:00:43.039Z,100275.06
2024-01-18T14:03:11.340Z,100279.22
2024-01-18T14:05:38.969Z,100282.44
2024-01-18T14:08:06.726Z,100282.75
2024-01-18T14:10:35.793Z,100297.22
2024-01-18T14:13:04.849Z,100302.97
2024-01-18T14:15:34.329Z,100310.59
2024-01-18T14:18:02.008Z,100309.28
2024-01-18T14:20:30.076Z,100315.03
2024-01-18T14:22:57.683Z,100324.59
2024-01-18T14:25:25.225Z,100321.63
2024-01-18T14:27:52.933Z,100326.25
2024-01-18T14:30:21.184Z,100335.56
2024-01-18T14:32:49.835Z,100339.38
2024-01-18T14:35:17.502Z,100350.84
2024-01-18T14:37:45.142Z,100356.38
2024-01-18T14:40:12.791Z,100358.56
2024-01-18T14:42:41.087Z,100357.47
2024-01-18T14:45:09.504Z,100369.78
2024-01-18T14:47:38.200Z,100376.59
2024-01-18T14:50:06.560Z,100390.53
2024-01-18T14:52:35.102Z,100395.16
2024-01-18T14:55:03.296Z,100399.56
2024-01-18T14:57:31.009Z,100402.88
2024-01-18T14:59:58.639Z,100409.97
2024-01-18T15:02:26.165Z,100416.81
2024-01-18T15:04:53.731Z,100414.34
2024-01-18T15:07:21.343Z,100419.59
2024-01-18T15:09:49.256Z,100434.06
2024-01-18T15:12:16.885Z,100430.53
2024-01-18T15:14:45.079Z,100441.19
2024-01-18T15:17:13.608Z,100448.28
2024-01-18T15:19:41.326Z,100456.22
2024-01-18T15:22:09.107Z,100458.16
2024-01-18T15:24:36.830Z,100464.44
2024-01-18T15:27:04.607Z,100471.81
2024-01-18T15:29:32.251Z,100468.56
2024-01-18T15:31:59.925Z,100470.47
2024-01-18T15:37:38.085Z,100489.06
2024-01-18T15:40:10.593Z,100496.94
2024-01-18T15:42:38.366Z,100507.88
2024-01-18T15:45:07.260Z,100519.03
2024-01-18T15:47:41.475Z,100520.69
2024-01-18T15:50:10.700Z,100531.59
2024-01-18T15:52:39.871Z,100537.84
2024-01-18T15:55:10.429Z,100545.75
2024-01-18T15:57:38.174Z,100546.03
2024-01-18T16:00:08.719Z,100552.28
2024-01-18T16:02:36.353Z,100549.81
2024-01-18T16:05:07.307Z,100560.69
2024-01-18T16:07:35.688Z,100566.94
2024-01-18T16:10:05.209Z,100578.66
2024-01-18T16:12:33.656Z,100583.81
2024-01-18T16:15:01.345Z,100594.69
2024-01-18T16:17:30.109Z,100605.81
2024-01-18T16:19:57.840Z,100609.63
2024-01-18T16:22:25.793Z,100615.03
2024-01-18T16:24:53.445Z,100617.75
2024-01-18T16:27:21.238Z,100626.72
2024-01-18T16:30:00.869Z,100626.44
2024-01-18T16:32:31.243Z,100640.53
2024-01-18T16:35:00.431Z,100641.59
2024-01-18T16:37:33.155Z,100648.66
2024-01-18T16:40:01.054Z,100665.75
2024-01-18T16:42:29.032Z,100666.81
2024-01-18T16:44:56.552Z,100675.47
2024-01-18T16:47:24.176Z,100678.44
2024-01-18T16:49:51.867Z,100684.38
2024-01-18T16:52:20.121Z,100685.97
2024-01-18T16:54:48.259Z,100692.78
2024-01-18T16:57:22.863Z,100693.28
2024-01-18T16:59:57.290Z,100700.34
2024-01-18T17:02:25.088Z,100704.13
2024-01-18T17:04:53.099Z,100715.81
2024-01-18T17:07:21.545Z,100726.13
2024-01-18T17:09:49.265Z,100731.00
2024-01-18T17:12:17.218Z,100733.16
2024-01-18T17:14:45.568Z,100744.28
2024-01-18T17:17:13.670Z,100740.19
2024-01-18T17:19:41.332Z,100748.84
2024-01-18T17:22:10.846Z,100752.09
2024-01-18T17:24:38.484Z,100753.41
2024-01-18T17:27:06.796Z,100765.63
2024-01-18T17:29:35.498Z,100775.09
2024-01-18T17:32:03.385Z,100768.31
2024-01-18T17:34:30.940Z,100772.34
2024-01-18T17:36:58.542Z,100778.03
2024-01-18T17:39:26.201Z,100786.94
2024-01-18T17:41:54.439Z,100791.00
2024-01-18T17:44:23.696Z,100799.66
2024-01-18T17:46:57.737Z,100798.84
2024-01-18T17:49:26.478Z,100800.19
2024-01-18T17:51:54.241Z,100804.22
2024-01-18T17:54:21.873Z,100807.19
2024-01-18T17:56:49.544Z,100811.47
2024-01-18T17:59:17.251Z,100814.69
2024-01-18T18:01:44.888Z,100825.81
2024-01-18T18:04:12.724Z,100824.44
2024-01-18T18:09:30.355Z,100832.78
2024-01-18T18:11:57.957Z,100833.28
2024-01-18T18:14:27.772Z,100836.25
2024-01-18T18:16:56.546Z,100840.00
2024-01-18T18:19:24.015Z,100842.97
2024-01-18T18:21:52.676Z,100840.53
2024-01-18T18:24:20.341Z,100841.03
2024-01-18T18:26:48.029Z,100853.78
2024-01-18T18:29:15.642Z,100851.81
2024-01-18T18:31:43.162Z,100861.28
2024-01-18T18:34:19.952Z,100864.25
2024-01-18T18:36:51.734Z,100871.00
2024-01-18T18:39:19.403Z,100875.03
2024-01-18T18:41:46.971Z,100877.75
2024-01-18T18:44:14.493Z,100884.50
2024-01-18T18:46:42.191Z,100886.66
2024-01-18T18:49:09.773Z,100887.13
2024-01-18T18:51:37.332Z,100900.13
2024-01-18T18:54:04.995Z,100900.63
2024-01-18T18:56:32.634Z,100907.94
2024-01-18T18:59:00.249Z,100914.69
2024-01-18T19:01:29.754Z,100919.53
2024-01-18T19:03:57.571Z,100922.75
2024-01-18T19:06:25.072Z,100930.31
2024-01-18T19:08:52.922Z,100937.88
2024-01-18T19:11:23.604Z,100948.38
2024-01-18T19:13:51.523Z,100951.59
2024-01-18T19:16:19.074Z,100957.50
2024-01-18T19:18:46.747Z,100961.81
2024-01-18T19:21:14.360Z,100970.66
2024-01-18T19:23:42.425Z,100973.03
2024-01-18T19:26:13.949Z,100983.31
2024-01-18T19:28:43.051Z,100986.03
2024-01-18T19:31:10.763Z,100997.34
2024-01-18T19:33:38.324Z,100988.91
2024-01-18T19:36:09.406Z,100999.16
2024-01-18T19:38:37.033Z,101014.84
2024-01-18T19:41:07.592Z,101014.50
2024-01-18T19:43:35.239Z,101015.00
2024-01-18T19:46:03.221Z,101024.66
2024-01-18T19:48:30.916Z,101031.97
2024-01-18T19:50:58.587Z,101028.66
2024-01-18T19:53:26.244Z,101030.81
2024-01-18T19:55:54.450Z,101029.38
2024-01-18T19:58:22.077Z,101037.53
2024-01-18T20:00:49.869Z,101041.56
2024-01-18T20:03:18.167Z,101046.16
2024-01-18T20:05:45.901Z,101049.09
2024-01-18T20:08:14.316Z,101059.94
2024-01-18T20:10:41.864Z,101061.84
2024-01-18T20:13:09.458Z,101063.94
2024-01-18T20:15:36.999Z,101073.03
2024-01-18T20:18:04.847Z,101087.91
2024-01-18T20:20:32.597Z,101083.53
2024-01-18T20:23:01.673Z,101088.38
2024-01-18T20:25:29.744Z,101090.50
2024-01-18T20:27:58.350Z,101099.91
2024-01-18T20:30:29.244Z,101111.25
2024-01-18T20:32:58.887Z,101115.59
2024-01-18T20:35:26.663Z,101123.13
2024-01-18T20:37:54.326Z,101119.59
2024-01-18T20:40:26.828Z,101116.06
2024-01-18T20:42:55.143Z,101119.00
2024-01-18T20:45:22.924Z,101119.25
2024-01-18T20:47:51.988Z,101123.84
2024-01-18T20:50:19.602Z,101128.91
2024-01-18T20:52:48.234Z,101127.84
2024-01-18T20:55:18.070Z,101134.91
2024-01-18T20:57:45.760Z,101144.69
2024-01-18T21:00:19.004Z,101142.22
2024-01-18T21:02:53.602Z,101150.94
2024-01-18T21:05:21.707Z,101157.19
2024-01-18T21:07:49.281Z,101153.28
2024-01-18T21:10:19.502Z,101161.19
2024-01-18T21:12:48.779Z,101158.47
2024-01-18T21:15:16.416Z,101162.25
2024-01-18T21:17:45.440Z,101160.59
2024-01-18T21:20:13.802Z,101165.19
2024-01-18T21:22:41.775Z,101174.16
2024-01-18T21:25:10.188Z,101181.44
2024-01-18T21:27:37.858Z,101180.84
2024-01-18T21:30:06.526Z,101183.78
2024-01-18T21:32:34.776Z,101174.84
2024-01-18T21:35:02.461Z,101178.63
2024-01-18T21:37:30.133Z,101186.75
2024-01-18T21:39:57.641Z,101196.41
2024-01-18T21:42:25.138Z,101197.47
2024-01-18T21:44:53.095Z,101193.94
2024-01-18T21:47:20.802Z,101195.00
2024-01-18T21:49:49.000Z,101201.69
2024-01-18T21:52:16.628Z,101198.41
2024-01-18T21:54:46.193Z,101203.00
2024-01-18T21:57:15.053Z,101193.19
2024-01-18T21:59:43.939Z,101199.47
2024-01-18T22:02:13.358Z,101210.50
2024-01-18T22:04:41.458Z,101213.22
2024-01-18T22:07:10.026Z,101210.50
2024-01-18T22:09:42.077Z,101209.69
2024-01-18T22:12:12.138Z,101212.63
2024-01-18T22:14:40.879Z,101213.06
2024-01-18T22:17:08.603Z,101212.75
2024-01-18T22:19:46.361Z,101213.78
2024-01-18T22:22:23.332Z,101217.78
2024-01-18T22:24:50.880Z,101224.03
2024-01-18T22:27:18.535Z,101222.13
2024-01-18T22:29:46.491Z,101227.56
2024-01-18T22:32:16.831Z,101229.44
2024-01-18T22:34:44.774Z,101228.38
2024-01-18T22:37:12.416Z,101232.16
2024-01-18T22:39:39.938Z,101239.44
2024-01-18T22:42:07.801Z,101244.63
2024-01-18T22:44:35.362Z,101245.69
2024-01-18T22:47:03.122Z,101252.16
2024-01-18T22:49:34.795Z,101254.88
2024-01-18T22:52:02.327Z,101254.03
2024-01-18T22:54:29.923Z,101253.81
2024-01-18T22:56:59.542Z,101262.50
2024-01-18T22:59:27.412Z,101259.81
2024-01-18T23:01:55.159Z,101267.34
2024-01-18T23:04:25.306Z,101274.06
2024-01-18T23:06:52.936Z,101274.06
2024-01-18T23:09:20.748Z,101273.25
2024-01-18T23:11:48.568Z,101271.56
2024-01-18T23:14:16.292Z,101268.84
2024-01-18T23:16:44.265Z,101271.56
2024-01-18T23:19:11.808Z,101276.97
2024-01-18T23:21:43.661Z,101271.56
2024-01-18T23:24:11.610Z,101275.81
2024-01-18T23:26:47.068Z,101271.22
2024-01-18T23:29:14.885Z,101275.81
2024-01-18T23:31:42.477Z,101278.28
2024-01-18T23:34:10.553Z,101269.78
2024-01-18T23:36:39.379Z,101276.84
2024-01-18T23:39:10.711Z,101284.97
2024-01-18T23:41:39.729Z,101285.19
2024-01-18T23:44:13.442Z,101287.66
2024-01-18T23:46:42.503Z,101289.78
2024-01-18T23:49:10.449Z,101290.84
2024-01-18T23:51:38.090Z,101302.28
2024-01-18T23:54:08.178Z,101305.81
2024-01-18T23:56:35.773Z,101316.19
2024-01-18T23:59:03.390Z,101314.06
